Time;durP1;ratioP1;P1;durP2;ratioP2;P2;SDS_P1;SDS_P2;PMS_P1;PMS_P2;Temp;Humidity;BMP_temperature;BMP_pressure;BME280_temperature;BME280_humidity;BME280_pressure;Samples;Min_cycle;Max_cycle;Signal;HPM_P1;HPM_P2
2022/04/18 00:00:09;;;;;;;20.13;9.73;;;2.60;90.50;;;;;;10365375;28;20512;-81
2022/04/18 00:05:10;;;;;;;16.37;7.80;;;2.50;90.40;;;;;;10408360;28;20028;-81
2022/04/18 00:10:10;;;;;;;13.43;6.50;;;2.50;90.50;;;;;;10382016;28;20034;-82
2022/04/18 00:15:11;;;;;;;11.57;6.10;;;2.40;90.90;;;;;;10377183;28;20476;-82
2022/04/18 00:20:12;;;;;;;12.23;5.10;;;2.40;91.20;;;;;;10406603;28;20573;-83
2022/04/18 00:25:12;;;;;;;10.27;5.37;;;2.40;91.50;;;;;;10387433;28;20041;-81
2022/04/18 00:30:13;;;;;;;9.37;5.17;;;2.40;91.70;;;;;;10380255;28;21667;-81
2022/04/18 00:35:13;;;;;;;8.43;4.33;;;2.40;92.20;;;;;;10370492;28;20450;-82
2022/04/18 00:40:14;;;;;;;6.47;4.30;;;2.40;92.50;;;;;;10375013;23;20554;-82
2022/04/18 00:45:15;;;;;;;8.53;4.20;;;2.30;93.00;;;;;;10331350;28;20037;-82
2022/04/18 00:50:15;;;;;;;10.07;4.97;;;2.20;93.50;;;;;;10332107;28;20590;-81
2022/04/18 00:55:16;;;;;;;23.20;9.27;;;2.10;95.00;;;;;;10330637;28;20027;-82
2022/04/18 01:00:17;;;;;;;20.30;9.43;;;2.10;95.70;;;;;;10331355;28;20486;-81
2022/04/18 01:05:18;;;;;;;11.83;5.60;;;2.10;95.20;;;;;;10334949;28;20018;-80
2022/04/18 01:10:18;;;;;;;13.07;4.70;;;2.10;94.70;;;;;;10340086;28;20034;-81
2022/04/18 01:15:19;;;;;;;9.40;4.30;;;2.00;94.30;;;;;;10333058;28;20050;-81
2022/04/18 01:20:19;;;;;;;8.47;4.40;;;2.00;94.20;;;;;;10353363;28;20133;-82
2022/04/18 01:30:44;;;;;;;7.90;4.60;;;1.80;94.90;;;;;;10331213;28;20050;-82
2022/04/18 01:35:45;;;;;;;9.93;5.63;;;1.90;94.90;;;;;;10344459;28;20417;-81
2022/04/18 01:40:46;;;;;;;8.60;5.37;;;1.80;95.90;;;;;;10335718;28;20142;-81
2022/04/18 01:45:46;;;;;;;12.53;5.97;;;1.70;96.10;;;;;;10322549;28;20106;-82
2022/04/18 01:50:47;;;;;;;10.20;5.60;;;1.80;96.90;;;;;;10316600;28;20080;-81
2022/04/18 01:55:47;;;;;;;8.13;4.63;;;1.70;96.90;;;;;;10328295;28;20626;-81
2022/04/18 02:00:48;;;;;;;7.87;4.70;;;1.70;96.70;;;;;;10322421;28;20465;-81
2022/04/18 02:05:52;;;;;;;9.27;5.57;;;1.80;96.20;;;;;;10310991;28;20583;-81
2022/04/18 02:10:53;;;;;;;9.83;5.47;;;1.80;95.60;;;;;;10326108;28;20422;-81
2022/04/18 02:15:57;;;;;;;14.37;5.63;;;1.90;94.60;;;;;;10322526;28;20039;-81
2022/04/18 02:20:58;;;;;;;13.87;6.93;;;1.80;94.70;;;;;;10327132;28;20022;-80
2022/04/18 02:25:58;;;;;;;15.63;8.17;;;1.70;95.70;;;;;;10328227;28;20034;-81
2022/04/18 02:30:59;;;;;;;15.03;7.63;;;1.60;97.20;;;;;;10318619;28;20043;-82
2022/04/18 02:36:01;;;;;;;12.63;6.00;;;1.50;97.30;;;;;;10304775;28;20026;-81
2022/04/18 02:41:01;;;;;;;11.93;6.20;;;1.50;97.80;;;;;;10326326;28;20410;-81
2022/04/18 02:46:02;;;;;;;12.90;6.80;;;1.50;97.50;;;;;;10323310;28;20019;-82
2022/04/18 02:51:03;;;;;;;14.83;8.10;;;1.40;97.50;;;;;;10327448;28;20042;-82
2022/04/18 02:56:03;;;;;;;14.73;8.20;;;1.30;98.60;;;;;;10306786;28;20039;-81
2022/04/18 03:01:04;;;;;;;15.70;8.20;;;1.20;99.10;;;;;;10327022;28;20030;-82
2022/04/18 03:06:05;;;;;;;17.60;6.97;;;1.10;99.90;;;;;;10337389;28;20038;-81
2022/04/18 03:11:07;;;;;;;20.50;9.97;;;0.90;99.90;;;;;;10304853;28;20042;-81
2022/04/18 03:16:07;;;;;;;16.03;8.03;;;0.90;99.90;;;;;;10311966;28;20524;-82
2022/04/18 03:21:10;;;;;;;12.47;6.30;;;0.90;99.90;;;;;;10325897;28;20027;-81
2022/04/18 03:26:11;;;;;;;10.93;5.53;;;0.90;99.90;;;;;;10303263;28;20041;-82
2022/04/18 03:31:12;;;;;;;10.43;5.90;;;0.90;99.90;;;;;;10326130;28;20395;-81
2022/04/18 03:41:32;;;;;;;7.70;4.80;;;0.90;99.90;;;;;;10331610;28;20499;-81
2022/04/18 03:46:33;;;;;;;9.37;5.20;;;0.90;99.90;;;;;;10320966;28;20061;-83
2022/04/18 03:51:34;;;;;;;12.67;6.10;;;0.90;99.90;;;;;;10332299;28;20518;-82
2022/04/18 03:56:34;;;;;;;17.97;8.83;;;0.80;99.90;;;;;;10331540;28;20039;-83
2022/04/18 04:01:35;;;;;;;19.67;9.20;;;0.80;99.90;;;;;;10317262;28;20057;-83
2022/04/18 04:06:36;;;;;;;22.60;10.30;;;0.90;99.90;;;;;;10303315;28;20049;-84
2022/04/18 04:11:37;;;;;;;21.33;10.73;;;0.80;99.90;;;;;;10332655;28;20054;-83
2022/04/18 04:16:40;;;;;;;20.23;9.53;;;0.90;99.90;;;;;;10321626;28;20037;-82
2022/04/18 04:21:41;;;;;;;20.07;10.63;;;1.10;99.90;;;;;;10331844;28;20022;-83
2022/04/18 04:26:42;;;;;;;26.57;13.17;;;1.40;99.90;;;;;;10332077;28;20033;-83
2022/04/18 04:31:42;;;;;;;26.07;14.03;;;1.70;99.90;;;;;;10318537;28;20046;-84
2022/04/18 04:36:43;;;;;;;54.13;25.57;;;2.00;99.90;;;;;;10309635;28;20033;-83
2022/04/18 04:41:44;;;;;;;47.37;21.80;;;2.10;99.90;;;;;;10348752;28;20062;-83
2022/04/18 04:46:45;;;;;;;49.73;24.50;;;2.10;99.90;;;;;;10330447;28;20026;-83
2022/04/18 04:51:46;;;;;;;43.37;20.47;;;2.00;99.90;;;;;;10369234;28;20038;-83
2022/04/18 04:56:47;;;;;;;64.03;28.37;;;2.00;99.90;;;;;;10359933;28;20035;-83
2022/04/18 05:01:47;;;;;;;257.13;89.67;;;2.00;99.90;;;;;;10327300;28;20101;-83
2022/04/18 05:06:48;;;;;;;348.30;120.40;;;2.20;99.90;;;;;;10326457;28;20053;-82
2022/04/18 05:11:48;;;;;;;52.73;31.97;;;2.30;99.90;;;;;;10328707;28;20522;-83
2022/04/18 05:16:49;;;;;;;57.90;29.10;;;2.50;99.90;;;;;;10338635;28;20465;-83
2022/04/18 05:21:50;;;;;;;45.03;25.60;;;2.70;99.90;;;;;;10327255;28;20037;-84
2022/04/18 05:26:50;;;;;;;57.40;30.17;;;2.90;99.90;;;;;;10329255;28;20409;-84
2022/04/18 05:31:51;;;;;;;56.90;29.37;;;3.00;99.90;;;;;;10324992;28;20053;-84
2022/04/18 05:36:52;;;;;;;51.00;26.47;;;3.10;99.90;;;;;;10333278;28;20106;-83
2022/04/18 05:41:53;;;;;;;48.27;25.90;;;3.30;99.90;;;;;;10326979;28;20046;-83
2022/04/18 05:46:53;;;;;;;24.77;14.20;;;3.50;99.90;;;;;;10328829;28;20031;-82
2022/04/18 05:51:54;;;;;;;19.10;10.87;;;3.90;99.90;;;;;;10326653;28;20475;-83
2022/04/18 05:56:55;;;;;;;27.60;14.47;;;4.30;99.90;;;;;;10326178;28;20034;-83
2022/04/18 06:01:55;;;;;;;25.00;12.97;;;4.40;97.30;;;;;;10328025;28;20427;-83
2022/04/18 06:06:56;;;;;;;24.90;13.10;;;4.50;95.40;;;;;;10328640;28;20050;-84
2022/04/18 06:11:57;;;;;;;29.70;14.07;;;4.50;94.50;;;;;;10327220;28;20049;-84
2022/04/18 06:16:58;;;;;;;30.73;14.97;;;4.50;94.10;;;;;;10328879;28;20045;-84
2022/04/18 06:21:59;;;;;;;27.57;13.43;;;4.50;93.90;;;;;;10340870;28;20030;-82
2022/04/18 06:27:00;;;;;;;28.13;14.47;;;4.80;92.70;;;;;;10320604;28;20037;-84
2022/04/18 06:32:01;;;;;;;27.03;14.27;;;5.10;91.90;;;;;;10333567;28;20034;-83
2022/04/18 06:37:02;;;;;;;32.73;15.80;;;5.30;92.50;;;;;;10319510;28;20076;-82
2022/04/18 06:42:04;;;;;;;25.47;14.87;;;5.50;91.00;;;;;;10325948;28;20077;-81
2022/04/18 06:47:05;;;;;;;32.17;15.80;;;5.80;91.30;;;;;;10347703;28;20033;-81
2022/04/18 06:52:06;;;;;;;28.73;13.63;;;6.20;91.00;;;;;;10329691;28;20380;-82
2022/04/18 06:57:07;;;;;;;27.10;14.27;;;6.60;87.00;;;;;;10325743;28;20034;-82
2022/04/18 07:02:08;;;;;;;21.50;12.30;;;6.80;85.00;;;;;;10340477;23;20072;-82
2022/04/18 07:07:09;;;;;;;24.27;12.50;;;7.00;85.30;;;;;;10326492;28;20022;-81
2022/04/18 07:12:09;;;;;;;23.63;11.70;;;7.30;82.30;;;;;;10325799;28;20057;-82
2022/04/18 07:17:10;;;;;;;25.83;12.30;;;7.70;81.60;;;;;;10329996;28;20664;-81
2022/04/18 07:22:10;;;;;;;20.90;10.93;;;7.90;81.90;;;;;;10333360;28;20034;-82
2022/04/18 07:27:11;;;;;;;24.47;12.37;;;8.20;80.90;;;;;;10333678;28;20486;-80
2022/04/18 07:32:12;;;;;;;18.17;11.17;;;8.50;79.10;;;;;;10331655;28;20046;-81
2022/04/18 07:37:13;;;;;;;11.80;6.70;;;8.60;77.00;;;;;;10333455;28;20117;-81
2022/04/18 07:42:14;;;;;;;11.27;6.40;;;8.80;72.50;;;;;;10348400;28;20132;-81
2022/04/18 07:47:15;;;;;;;10.87;6.47;;;9.20;73.70;;;;;;10370401;28;20109;-82
2022/04/18 07:52:15;;;;;;;11.20;6.40;;;9.60;71.20;;;;;;10352272;28;20107;-82
2022/04/18 07:57:16;;;;;;;11.97;6.20;;;9.40;66.50;;;;;;10366018;28;20056;-82
2022/04/18 08:02:18;;;;;;;7.57;4.07;;;8.90;68.80;;;;;;10363610;28;20065;-82
2022/04/18 08:07:18;;;;;;;9.23;4.60;;;8.80;68.70;;;;;;10364461;28;20026;-82
2022/04/18 08:12:19;;;;;;;5.80;3.80;;;9.40;68.90;;;;;;10350955;28;20061;-81
2022/04/18 08:17:19;;;;;;;5.47;2.80;;;9.70;62.20;;;;;;10343399;28;20033;-81
2022/04/18 08:22:20;;;;;;;6.47;3.43;;;10.10;61.90;;;;;;10373234;28;20109;-82
2022/04/18 08:27:21;;;;;;;7.30;4.23;;;10.30;60.10;;;;;;10360159;28;20041;-80
2022/04/18 08:32:21;;;;;;;6.87;3.50;;;10.20;58.20;;;;;;10360075;28;20046;-82
2022/04/18 08:37:22;;;;;;;6.10;3.50;;;10.00;60.20;;;;;;10360690;28;20019;-83
2022/04/18 08:42:24;;;;;;;4.53;2.90;;;10.10;58.60;;;;;;10344689;28;20030;-81
2022/04/18 08:52:46;;;;;;;10.27;4.57;;;9.90;58.00;;;;;;10360347;28;20498;-81
2022/04/18 08:57:46;;;;;;;5.37;3.10;;;9.80;59.90;;;;;;10364426;28;20029;-80
2022/04/18 09:02:48;;;;;;;6.07;3.73;;;10.00;55.40;;;;;;10359964;28;20145;-82
2022/04/18 09:08:05;;;;;;;6.90;3.77;;;9.80;56.70;;;;;;10365821;28;20129;-83
2022/04/18 09:13:11;;;;;;;6.10;3.25;;;10.20;54.60;;;;;;10369512;28;20045;-83
2022/04/18 09:18:20;;;;;;;4.43;2.67;;;10.80;54.20;;;;;;10367028;28;20050;-82
2022/04/18 09:23:27;;;;;;;3.07;2.60;;;10.10;52.30;;;;;;10350306;28;20052;-82
2022/04/18 09:28:33;;;;;;;7.67;4.10;;;9.50;53.90;;;;;;10355407;28;20026;-82
2022/04/18 09:33:41;;;;;;;6.80;3.63;;;9.50;55.70;;;;;;10344718;28;20018;-81
2022/04/18 09:38:53;;;;;;;6.57;3.40;;;10.30;53.40;;;;;;10328222;28;20034;-82
2022/04/18 09:43:55;;;;;;;4.95;3.13;;;11.30;53.50;;;;;;10327376;28;20019;-85
2022/04/18 09:49:01;;;;;;;5.30;3.75;;;12.20;52.50;;;;;;10343017;28;20406;-81
2022/04/18 09:54:03;;;;;;;6.15;3.63;;;11.30;50.20;;;;;;10344096;28;20814;-83
2022/04/18 09:59:04;;;;;;;9.35;4.03;;;10.70;51.30;;;;;;10346028;28;20047;-81
2022/04/18 10:04:07;;;;;;;10.67;4.23;;;10.00;53.60;;;;;;10339950;28;20023;-80
2022/04/18 10:09:09;;;;;;;7.03;4.67;;;10.10;55.10;;;;;;10343910;28;20120;-81
2022/04/18 10:14:10;;;;;;;8.73;5.13;;;10.60;55.60;;;;;;10365315;28;20117;-80
2022/04/18 10:19:48;;;;;;;5.50;3.80;;;11.50;57.40;;;;;;10355488;28;20052;-82
2022/04/18 10:25:29;;;;;;;6.05;3.80;;;11.60;53.20;;;;;;10353269;28;20026;-80
2022/04/18 10:30:37;;;;;;;6.30;3.83;;;11.00;51.30;;;;;;10308578;28;20398;-82
2022/04/18 10:35:52;;;;;;;7.00;4.50;;;11.00;54.10;;;;;;10353508;28;20026;-81
2022/04/18 10:41:14;;;;;;;6.50;4.10;;;10.60;54.90;;;;;;10350711;28;20518;-83
2022/04/18 10:46:18;;;;;;;7.97;4.53;;;10.70;54.70;;;;;;10346891;28;20308;-81
2022/04/18 10:51:34;;;;;;;6.15;4.20;;;10.80;55.30;;;;;;10351211;28;20037;-81
2022/04/18 10:57:02;;;;;;;6.03;3.40;;;11.50;52.60;;;;;;10351228;28;20041;-80
2022/04/18 11:02:05;;;;;;;6.05;3.63;;;11.60;55.10;;;;;;10344285;28;20080;-82
2022/04/18 11:07:09;;;;;;;5.63;3.92;;;12.10;54.00;;;;;;10340774;28;20018;-83
2022/04/18 11:12:16;;;;;;;5.50;3.67;;;11.50;53.70;;;;;;10349303;28;20533;-81
2022/04/18 11:17:32;;;;;;;6.05;4.05;;;11.30;53.80;;;;;;10353296;28;20101;-83
2022/04/18 11:22:32;;;;;;;5.00;3.60;;;11.10;54.20;;;;;;10346136;28;20041;-80
2022/04/18 11:27:35;;;;;;;6.45;3.80;;;10.90;55.10;;;;;;10345976;28;20732;-82
2022/04/18 11:32:42;;;;;;;10.00;5.73;;;10.70;53.30;;;;;;10358332;28;20133;-81
2022/04/18 11:37:44;;;;;;;5.90;3.50;;;10.50;54.30;;;;;;10365279;28;20026;-81
2022/04/18 11:42:45;;;;;;;5.63;3.20;;;10.30;52.90;;;;;;10345497;28;20096;-82
2022/04/18 11:47:47;;;;;;;13.20;7.97;;;10.10;54.70;;;;;;10351713;28;20100;-80
2022/04/18 11:52:49;;;;;;;24.90;12.35;;;10.80;55.80;;;;;;10356718;28;20038;-80
2022/04/18 11:57:50;;;;;;;5.40;3.45;;;11.10;57.40;;;;;;10360418;28;20040;-80
2022/04/18 12:08:12;;;;;;;9.05;5.93;;;12.40;51.30;;;;;;10365590;28;21168;-82
2022/04/18 12:13:15;;;;;;;11.07;6.40;;;11.90;53.50;;;;;;10370445;28;20083;-80
2022/04/18 12:18:17;;;;;;;14.40;8.90;;;12.00;51.70;;;;;;10365097;28;20390;-80
2022/04/18 12:23:26;;;;;;;4.00;2.95;;;11.70;52.20;;;;;;10368451;28;20026;-83
2022/04/18 12:28:29;;;;;;;4.97;3.30;;;11.50;53.50;;;;;;10364396;28;20072;-82
2022/04/18 12:33:30;;;;;;;5.85;3.47;;;11.50;52.30;;;;;;10362336;28;20410;-81
2022/04/18 12:38:39;;;;;;;7.30;3.67;;;11.50;54.80;;;;;;10356448;28;20080;-80
2022/04/18 12:43:40;;;;;;;5.85;3.70;;;11.40;53.50;;;;;;10358949;28;20022;-85
2022/04/18 12:48:49;;;;;;;5.83;3.93;;;10.90;51.80;;;;;;10365200;28;20453;-81
2022/04/18 12:53:54;;;;;;;5.53;3.77;;;10.70;53.70;;;;;;10351781;28;20026;-80
2022/04/18 12:58:56;;;;;;;4.80;3.20;;;10.50;52.60;;;;;;10344509;28;20585;-83
2022/04/18 13:03:57;;;;;;;5.47;3.53;;;10.50;52.80;;;;;;10347843;28;20010;-81
2022/04/18 13:09:09;;;;;;;5.37;3.60;;;10.60;53.70;;;;;;10361522;28;20030;-80
2022/04/18 13:14:13;;;;;;;7.93;3.67;;;10.50;55.10;;;;;;10361669;28;20058;-81
2022/04/18 13:19:15;;;;;;;7.47;4.10;;;10.80;53.70;;;;;;10357627;28;20385;-80
2022/04/18 13:24:15;;;;;;;7.05;4.07;;;10.90;53.50;;;;;;10359790;28;20032;-81
2022/04/18 13:29:16;;;;;;;9.40;3.97;;;11.00;54.90;;;;;;10352710;28;20391;-80
2022/04/18 13:34:17;;;;;;;5.60;3.58;;;11.10;52.80;;;;;;10352866;28;20058;-80
2022/04/18 13:39:18;;;;;;;4.90;3.17;;;11.20;54.00;;;;;;10360707;28;20493;-81
2022/04/18 13:44:18;;;;;;;5.10;3.13;;;11.70;55.10;;;;;;10361213;28;20485;-81
2022/04/18 13:49:19;;;;;;;5.32;3.50;;;11.40;51.80;;;;;;10355500;28;20611;-80
2022/04/18 13:54:20;;;;;;;7.88;3.22;;;11.30;53.30;;;;;;10355934;28;20014;-80
2022/04/18 13:59:20;;;;;;;5.65;3.40;;;11.20;54.40;;;;;;10356311;28;20137;-79
2022/04/18 14:04:21;;;;;;;25.13;13.57;;;11.30;55.30;;;;;;10365902;28;20042;-80
2022/04/18 14:09:22;;;;;;;16.05;7.57;;;11.10;53.40;;;;;;10364286;28;20038;-79
2022/04/18 14:25:02;;;;;;;77.50;43.43;;;10.10;54.90;;;;;;10367779;28;20033;-82
2022/04/18 14:30:04;;;;;;;449.57;261.57;;;10.40;56.30;;;;;;10344902;28;20064;-84
2022/04/18 14:35:05;;;;;;;30.23;13.87;;;10.60;55.70;;;;;;10349480;28;20036;-81
2022/04/18 14:40:08;;;;;;;1147.72;520.72;;;10.60;54.30;;;;;;10361981;28;20026;-82
2022/04/18 14:45:09;;;;;;;233.67;100.13;;;10.30;54.50;;;;;;10342096;28;20072;-82
2022/04/18 14:50:09;;;;;;;378.73;174.90;;;10.30;54.80;;;;;;10346641;28;20120;-81
2022/04/18 14:55:10;;;;;;;19.10;8.03;;;10.10;56.10;;;;;;10328620;28;20032;-82
2022/04/18 15:00:11;;;;;;;353.73;175.13;;;10.20;56.10;;;;;;10346203;28;20106;-80
2022/04/18 15:05:12;;;;;;;516.57;298.97;;;10.20;54.60;;;;;;10335109;28;20034;-81
2022/04/18 15:10:13;;;;;;;10.87;6.27;;;10.10;54.50;;;;;;10366115;28;20042;-81
2022/04/18 15:15:15;;;;;;;7.10;4.30;;;10.10;55.50;;;;;;10359826;28;20671;-80
2022/04/18 15:20:15;;;;;;;6.13;3.30;;;10.10;56.00;;;;;;10358450;28;20113;-83
2022/04/18 15:25:16;;;;;;;10.10;5.07;;;10.40;57.00;;;;;;10366535;28;20745;-82
2022/04/18 15:35:36;;;;;;;7.20;3.83;;;10.80;57.30;;;;;;10367460;28;20105;-80
2022/04/18 15:40:37;;;;;;;6.17;4.00;;;10.40;55.90;;;;;;10355210;28;20030;-79
2022/04/18 15:45:39;;;;;;;7.30;4.20;;;10.00;56.00;;;;;;10373460;28;20030;-85
2022/04/18 15:50:40;;;;;;;5.40;3.20;;;9.70;56.90;;;;;;10375901;28;20038;-81
2022/04/18 15:55:41;;;;;;;5.43;3.57;;;9.80;58.20;;;;;;10355642;28;20029;-81
2022/04/18 16:00:42;;;;;;;7.20;3.70;;;10.00;56.60;;;;;;10368671;28;20042;-80
2022/04/18 16:05:43;;;;;;;5.60;3.60;;;10.10;57.10;;;;;;10372693;28;20034;-81
2022/04/18 16:10:44;;;;;;;7.63;4.37;;;10.20;56.70;;;;;;10359384;28;20046;-81
2022/04/18 16:15:45;;;;;;;8.37;4.13;;;10.10;57.10;;;;;;10368663;28;20030;-82
2022/04/18 16:20:45;;;;;;;5.67;3.53;;;9.70;57.00;;;;;;10369791;28;20108;-81
2022/04/18 16:25:46;;;;;;;7.87;4.43;;;9.40;57.60;;;;;;10365547;28;20018;-81
2022/04/18 16:36:12;;;;;;;16.27;7.23;;;9.10;58.20;;;;;;10370960;28;20038;-82
2022/04/18 16:46:32;;;;;;;14.50;6.90;;;8.90;58.80;;;;;;10364178;28;20121;-84
2022/04/18 16:51:37;;;;;;;10.43;5.60;;;8.90;60.70;;;;;;10367724;28;20042;-82
2022/04/18 16:56:38;;;;;;;13.07;6.50;;;8.90;60.00;;;;;;10361334;28;20018;-82
2022/04/18 17:01:38;;;;;;;9.97;5.60;;;8.90;63.30;;;;;;10369281;28;20052;-81
2022/04/18 17:06:39;;;;;;;10.93;5.33;;;8.80;64.50;;;;;;10369884;28;20048;-81
2022/04/18 17:11:40;;;;;;;9.70;4.70;;;8.60;64.70;;;;;;10369553;28;20053;-81
2022/04/18 17:16:40;;;;;;;10.50;5.90;;;8.50;66.80;;;;;;10370787;28;20029;-82
2022/04/18 17:21:41;;;;;;;9.53;5.07;;;8.40;66.30;;;;;;10370327;28;20112;-83
2022/04/18 17:26:42;;;;;;;12.43;5.77;;;8.30;68.20;;;;;;10368017;28;20512;-83
2022/04/18 17:31:43;;;;;;;10.67;5.47;;;8.10;70.20;;;;;;10367259;28;20497;-84
2022/04/18 17:36:44;;;;;;;12.40;6.20;;;8.00;70.90;;;;;;10370099;28;20117;-85
2022/04/18 17:41:44;;;;;;;11.60;5.57;;;7.80;71.20;;;;;;10368391;28;20581;-82
2022/04/18 17:46:45;;;;;;;12.77;5.60;;;7.60;72.10;;;;;;10367960;28;20049;-84
2022/04/18 17:51:46;;;;;;;10.63;5.43;;;7.50;72.60;;;;;;10367544;28;20060;-83
2022/04/18 17:56:47;;;;;;;12.90;6.23;;;7.40;71.20;;;;;;10368058;28;20045;-83
2022/04/18 18:01:48;;;;;;;12.97;6.60;;;7.20;72.90;;;;;;10361202;28;20105;-81
2022/04/18 18:06:49;;;;;;;14.10;6.60;;;7.00;72.90;;;;;;10367572;28;20117;-83
2022/04/18 18:11:49;;;;;;;14.20;6.30;;;6.80;72.60;;;;;;10362042;28;20038;-83
2022/04/18 18:16:51;;;;;;;14.07;6.80;;;6.60;72.80;;;;;;10347461;28;20037;-83
2022/04/18 18:21:52;;;;;;;19.23;7.80;;;6.40;73.00;;;;;;10366736;28;20029;-84
2022/04/18 18:26:53;;;;;;;19.33;8.43;;;6.10;73.30;;;;;;10349117;28;20049;-81
2022/04/18 18:31:53;;;;;;;17.63;8.03;;;6.00;73.90;;;;;;10365972;28;20088;-84
2022/04/18 18:36:54;;;;;;;22.80;9.53;;;5.80;74.10;;;;;;10366721;28;20033;-83
2022/04/18 18:41:55;;;;;;;22.80;9.83;;;5.70;74.60;;;;;;10365865;28;20539;-84
2022/04/18 18:46:56;;;;;;;22.73;9.20;;;5.60;75.00;;;;;;10366419;28;20520;-82
2022/04/18 18:57:16;;;;;;;23.70;9.17;;;5.40;75.60;;;;;;10366101;28;20046;-82
2022/04/18 19:02:17;;;;;;;25.13;9.73;;;5.40;76.50;;;;;;10366818;28;20046;-82
2022/04/18 19:07:18;;;;;;;22.73;9.67;;;5.30;76.80;;;;;;10355468;28;20081;-82
2022/04/18 19:12:20;;;;;;;26.33;10.60;;;5.30;76.90;;;;;;10364411;28;20050;-85
2022/04/18 19:27:59;;;;;;;23.27;8.93;;;5.40;77.60;;;;;;10356875;28;20034;-84
2022/04/18 19:33:02;;;;;;;23.07;9.57;;;5.40;77.40;;;;;;10359267;28;20565;-82
2022/04/18 19:38:03;;;;;;;24.33;9.80;;;5.40;78.00;;;;;;10360520;28;20045;-86
2022/04/18 19:43:04;;;;;;;20.77;8.87;;;5.40;77.90;;;;;;10345923;28;20029;-83
2022/04/18 19:48:06;;;;;;;19.83;8.70;;;5.40;78.30;;;;;;10346170;28;20026;-82
2022/04/18 19:53:08;;;;;;;19.53;8.10;;;5.40;77.90;;;;;;10352086;28;20189;-82
2022/04/18 19:58:09;;;;;;;17.57;7.13;;;5.40;78.60;;;;;;10360098;28;20066;-81
2022/04/18 20:03:09;;;;;;;13.50;6.10;;;5.40;78.60;;;;;;10364788;28;20026;-82
2022/04/18 20:08:11;;;;;;;14.93;6.17;;;5.40;77.90;;;;;;10353545;28;20164;-83
2022/04/18 20:13:12;;;;;;;13.07;6.07;;;5.40;78.20;;;;;;10365590;28;20049;-83
2022/04/18 20:18:18;;;;;;;12.57;6.33;;;5.40;78.90;;;;;;10363239;28;20543;-82
2022/04/18 20:23:19;;;;;;;;;;;5.50;78.90;;;;;;10353772;28;20470;-83
2022/04/18 20:28:20;;;;;;;12.33;5.33;;;5.40;80.80;;;;;;10371422;28;19959;-86
2022/04/18 20:33:21;;;;;;;13.20;5.23;;;5.40;80.90;;;;;;10371667;28;20038;-83
2022/04/18 20:38:21;;;;;;;10.17;4.73;;;5.40;79.20;;;;;;10372096;28;20164;-83
2022/04/18 20:43:22;;;;;;;12.97;4.93;;;5.50;79.90;;;;;;10370901;28;20048;-82
2022/04/18 20:48:30;;;;;;;13.87;5.70;;;5.40;79.10;;;;;;10371990;28;20049;-86
2022/04/18 20:58:51;;;;;;;13.83;6.10;;;5.50;77.90;;;;;;10354557;28;20497;-83
2022/04/18 21:03:51;;;;;;;14.47;5.47;;;5.50;79.40;;;;;;10352099;28;20049;-85
2022/04/18 21:08:55;;;;;;;14.60;5.47;;;5.30;79.70;;;;;;10371044;28;20125;-84
2022/04/18 21:13:56;;;;;;;13.13;6.10;;;5.10;80.00;;;;;;10368456;28;20589;-81
2022/04/18 21:18:57;;;;;;;11.97;5.37;;;5.10;79.20;;;;;;10365409;28;20164;-82
2022/04/18 21:23:58;;;;;;;12.70;6.07;;;5.10;78.90;;;;;;10370677;28;20034;-82
2022/04/18 21:28:59;;;;;;;19.67;8.87;;;5.10;78.30;;;;;;10370155;28;20028;-82
2022/04/18 21:34:00;;;;;;;22.33;9.70;;;5.30;77.30;;;;;;10368889;28;20033;-82
2022/04/18 21:39:03;;;;;;;21.43;9.53;;;5.30;76.90;;;;;;10370029;28;20030;-82
2022/04/18 21:44:04;;;;;;;29.77;11.40;;;5.40;76.40;;;;;;10351845;28;20036;-85
2022/04/18 21:49:06;;;;;;;24.43;11.27;;;5.40;76.10;;;;;;10370352;28;20026;-82
2022/04/18 21:54:08;;;;;;;21.03;9.80;;;5.30;75.70;;;;;;10357046;28;20022;-82
2022/04/18 21:59:09;;;;;;;25.17;9.73;;;5.20;75.50;;;;;;10354838;28;20104;-83
2022/04/18 22:04:11;;;;;;;21.87;8.80;;;5.10;75.60;;;;;;10357189;28;20034;-85
2022/04/18 22:09:12;;;;;;;19.77;8.30;;;4.80;77.00;;;;;;10356275;28;20042;-81
2022/04/18 22:14:12;;;;;;;18.73;7.63;;;4.40;78.50;;;;;;10353281;28;20428;-86
2022/04/18 22:29:51;;;;;;;12.67;5.73;;;3.80;79.80;;;;;;10361669;28;20053;-83
2022/04/18 22:34:54;;;;;;;16.00;6.20;;;3.80;80.40;;;;;;10354864;28;20030;-82
2022/04/18 22:39:55;;;;;;;12.73;5.70;;;3.70;80.60;;;;;;10329752;28;20561;-82
2022/04/18 22:44:56;;;;;;;9.57;4.47;;;3.70;80.50;;;;;;10352617;28;20033;-84
2022/04/18 22:49:57;;;;;;;14.37;5.80;;;4.10;79.90;;;;;;10367355;28;20037;-82
2022/04/18 22:54:58;;;;;;;10.77;4.50;;;4.20;81.10;;;;;;10367095;28;20478;-82
2022/04/18 23:00:00;;;;;;;7.00;4.03;;;4.30;80.30;;;;;;10367585;28;20061;-82
2022/04/18 23:10:20;;;;;;;9.03;4.40;;;4.70;78.60;;;;;;10367161;28;20476;-82
2022/04/18 23:15:22;;;;;;;8.30;4.30;;;4.70;79.00;;;;;;10366849;28;20113;-82
2022/04/18 23:20:23;;;;;;;6.93;3.97;;;4.70;79.70;;;;;;10366631;28;20037;-82
2022/04/18 23:25:23;;;;;;;9.07;4.73;;;4.70;80.20;;;;;;10349498;28;20125;-84
2022/04/18 23:30:24;;;;;;;8.93;4.33;;;4.70;80.20;;;;;;10366574;28;20437;-82
2022/04/18 23:35:26;;;;;;;10.03;4.93;;;4.60;80.10;;;;;;10365409;28;20038;-85
2022/04/18 23:45:46;;;;;;;10.07;4.73;;;4.40;80.50;;;;;;10366598;28;20038;-85
2022/04/18 23:50:49;;;;;;;8.63;4.43;;;4.30;80.50;;;;;;10349505;28;20045;-82
2022/04/18 23:55:55;;;;;;;8.00;4.13;;;4.10;80.90;;;;;;10367989;28;20112;-82
